createdAt,value
2023-02-07T00:01:14.821Z,16.05
2023-02-07T00:03:41.368Z,21.75
2023-02-07T00:06:10.429Z,17.92
2023-02-07T00:08:38.534Z,14.73
2023-02-07T00:11:09.019Z,16.50
2023-02-07T00:13:35.802Z,15.50
2023-02-07T00:16:04.343Z,17.25
2023-02-07T00:18:31.391Z,16.92
2023-02-07T00:21:03.424Z,16.10
2023-02-07T00:23:31.498Z,19.27
2023-02-07T00:25:58.558Z,15.07
2023-02-07T00:28:25.528Z,14.02
2023-02-07T00:31:01.833Z,13.30
2023-02-07T00:33:28.394Z,15.07
2023-02-07T00:36:03.282Z,19.48
2023-02-07T00:38:30.343Z,24.65
2023-02-07T00:40:56.960Z,25.23
2023-02-07T00:43:29.924Z,27.80
2023-02-07T00:46:01.405Z,25.70
2023-02-07T00:48:30.267Z,24.05
2023-02-07T00:50:57.368Z,30.27
2023-02-07T00:53:25.067Z,26.93
2023-02-07T00:55:51.673Z,30.40
2023-02-07T00:58:18.397Z,28.13
2023-02-07T01:00:45.083Z,32.87
2023-02-07T01:03:11.624Z,33.05
2023-02-07T01:05:38.553Z,29.33
2023-02-07T01:08:05.645Z,31.47
2023-02-07T01:10:32.851Z,30.73
2023-02-07T01:12:59.452Z,29.53
2023-02-07T01:15:26.893Z,29.03
2023-02-07T01:17:53.464Z,31.80
2023-02-07T01:20:20.059Z,28.37
2023-02-07T01:22:46.586Z,26.73
2023-02-07T01:25:13.106Z,30.73
2023-02-07T01:27:39.690Z,26.90
2023-02-07T01:30:06.492Z,28.37
2023-02-07T01:32:33.739Z,29.57
2023-02-07T01:35:00.646Z,29.00
2023-02-07T01:37:27.483Z,29.87
2023-02-07T01:39:55.408Z,29.30
2023-02-07T01:42:25.489Z,29.75
2023-02-07T01:44:51.963Z,31.00
2023-02-07T01:47:22.304Z,30.27
2023-02-07T01:49:52.376Z,27.90
2023-02-07T01:52:26.039Z,30.83
2023-02-07T01:54:58.093Z,30.23
2023-02-07T01:57:25.789Z,29.57
2023-02-07T01:59:55.289Z,32.77
2023-02-07T02:02:23.931Z,36.03
2023-02-07T02:04:53.892Z,32.43
2023-02-07T02:07:20.902Z,28.20
2023-02-07T02:09:47.467Z,30.17
2023-02-07T02:12:34.615Z,29.33
2023-02-07T02:15:43.049Z,34.63
2023-02-07T02:18:39.692Z,35.13
2023-02-07T02:21:32.917Z,33.13
2023-02-07T02:24:24.308Z,26.93
2023-02-07T02:27:21.274Z,22.63
2023-02-07T02:29:50.761Z,30.93
2023-02-07T02:32:50.781Z,26.20
2023-02-07T02:35:28.645Z,25.10
2023-02-07T02:38:21.784Z,24.93
2023-02-07T02:41:04.428Z,27.20
2023-02-07T02:43:36.828Z,22.93
2023-02-07T02:46:09.176Z,22.90
2023-02-07T02:48:36.347Z,24.00
2023-02-07T02:51:04.518Z,22.40
2023-02-07T02:53:31.220Z,23.80
2023-02-07T02:56:13.439Z,21.33
2023-02-07T02:59:00.539Z,21.03
2023-02-07T03:01:36.199Z,21.40
2023-02-07T03:04:08.768Z,23.17
2023-02-07T03:06:54.910Z,18.50
2023-02-07T03:09:39.425Z,21.10
2023-02-07T03:12:22.537Z,19.25
2023-02-07T03:14:54.856Z,21.80
2023-02-07T03:17:35.462Z,23.17
2023-02-07T03:20:17.280Z,20.50
2023-02-07T03:22:46.573Z,21.60
2023-02-07T03:25:15.411Z,20.87
2023-02-07T03:27:43.264Z,20.03
2023-02-07T03:30:16.407Z,16.03
2023-02-07T03:32:49.703Z,16.47
2023-02-07T03:35:24.768Z,17.70
2023-02-07T03:37:56.671Z,15.27
2023-02-07T03:40:27.096Z,18.17
2023-02-07T03:43:02.501Z,19.00
2023-02-07T03:45:29.400Z,17.27
2023-02-07T03:47:55.898Z,17.97
2023-02-07T03:50:22.643Z,19.43
2023-02-07T03:52:49.274Z,19.33
2023-02-07T03:55:15.938Z,15.13
2023-02-07T03:57:42.541Z,14.73
2023-02-07T04:00:10.384Z,18.60
2023-02-07T04:02:36.883Z,21.20
2023-02-07T04:05:03.444Z,11.97
2023-02-07T04:07:30.551Z,16.03
2023-02-07T04:09:57.128Z,13.33
2023-02-07T04:12:23.979Z,15.33
2023-02-07T04:14:50.432Z,19.70
2023-02-07T04:17:16.925Z,19.43
2023-02-07T04:19:43.413Z,20.67
2023-02-07T04:22:11.154Z,26.03
2023-02-07T04:24:37.680Z,30.20
2023-02-07T04:27:04.600Z,28.40
2023-02-07T04:29:31.065Z,30.70
2023-02-07T04:31:59.035Z,32.23
2023-02-07T04:34:25.901Z,28.27
2023-02-07T04:36:53.577Z,28.93
2023-02-07T04:39:20.542Z,27.17
2023-02-07T04:41:47.289Z,26.33
2023-02-07T04:44:13.766Z,17.67
2023-02-07T04:46:40.254Z,16.02
2023-02-07T04:49:07.172Z,24.13
2023-02-07T04:51:33.799Z,22.33
2023-02-07T04:54:00.352Z,28.20
2023-02-07T04:56:27.100Z,25.83
2023-02-07T04:58:53.819Z,35.00
2023-02-07T05:01:20.450Z,24.07
2023-02-07T05:03:47.006Z,25.40
2023-02-07T05:06:13.597Z,24.60
2023-02-07T05:08:40.349Z,24.90
2023-02-07T05:11:07.148Z,25.90
2023-02-07T05:13:33.734Z,23.80
2023-02-07T05:16:04.046Z,22.70
2023-02-07T05:18:30.977Z,18.90
2023-02-07T05:20:58.141Z,21.00
2023-02-07T05:23:25.219Z,23.33
2023-02-07T05:25:51.704Z,20.27
2023-02-07T05:28:18.229Z,23.17
2023-02-07T05:30:44.903Z,22.87
2023-02-07T05:33:11.857Z,22.57
2023-02-07T05:35:46.230Z,20.80
2023-02-07T05:38:16.009Z,21.13
2023-02-07T05:40:43.378Z,21.20
2023-02-07T05:43:11.471Z,19.27
2023-02-07T05:45:38.685Z,21.53
2023-02-07T05:48:06.373Z,21.73
2023-02-07T05:50:33.271Z,26.27
2023-02-07T05:53:00.037Z,18.87
2023-02-07T05:55:26.586Z,23.63
2023-02-07T05:57:53.036Z,21.73
2023-02-07T06:00:20.398Z,20.53
2023-02-07T06:02:46.916Z,21.63
2023-02-07T06:05:16.483Z,21.07
2023-02-07T06:07:46.575Z,19.67
2023-02-07T06:10:13.451Z,17.43
2023-02-07T06:12:40.220Z,22.13
2023-02-07T06:15:07.204Z,18.23
2023-02-07T06:17:33.688Z,22.73
2023-02-07T06:20:00.213Z,17.43
2023-02-07T06:22:26.837Z,18.75
2023-02-07T06:24:53.327Z,17.97
2023-02-07T06:27:19.923Z,16.58
2023-02-07T06:29:46.424Z,18.10
2023-02-07T06:32:12.921Z,22.92
2023-02-07T06:34:39.468Z,12.53
2023-02-07T06:37:06.140Z,13.27
2023-02-07T06:39:32.656Z,16.23
2023-02-07T06:41:59.197Z,14.47
2023-02-07T06:44:25.795Z,13.43
2023-02-07T06:46:52.288Z,17.60
2023-02-07T06:49:18.784Z,12.68
2023-02-07T06:51:45.271Z,14.97
2023-02-07T06:54:11.807Z,13.70
2023-02-07T06:56:38.852Z,24.08
2023-02-07T06:59:05.420Z,17.08
2023-02-07T07:01:32.272Z,13.35
2023-02-07T07:03:58.741Z,13.40
2023-02-07T07:06:25.432Z,12.27
2023-02-07T07:08:51.992Z,10.52
2023-02-07T07:11:19.152Z,8.65
2023-02-07T07:13:46.777Z,7.63
2023-02-07T07:16:14.122Z,6.28
2023-02-07T07:18:41.473Z,10.90
2023-02-07T07:21:08.443Z,11.48
2023-02-07T07:23:35.039Z,8.75
2023-02-07T07:26:01.587Z,11.07
2023-02-07T07:28:28.128Z,13.70
2023-02-07T07:30:54.650Z,11.32
2023-02-07T07:33:21.195Z,11.05
2023-02-07T07:35:47.753Z,8.13
2023-02-07T07:38:14.619Z,9.35
2023-02-07T07:40:41.468Z,14.18
2023-02-07T07:43:08.033Z,11.23
2023-02-07T07:45:34.660Z,7.93
2023-02-07T07:48:01.276Z,8.57
2023-02-07T07:50:27.824Z,7.95
2023-02-07T07:52:54.374Z,10.27
2023-02-07T07:55:20.843Z,10.15
2023-02-07T07:57:47.394Z,7.95
2023-02-07T08:00:14.657Z,16.33
2023-02-07T08:02:41.919Z,11.93
2023-02-07T08:05:10.809Z,8.85
2023-02-07T08:07:38.606Z,15.50
2023-02-07T08:10:05.723Z,10.15
2023-02-07T08:12:32.566Z,9.23
2023-02-07T08:14:59.084Z,9.95
2023-02-07T08:17:25.597Z,10.60
2023-02-07T08:19:52.116Z,10.73
2023-02-07T08:22:19.020Z,10.23
2023-02-07T08:24:45.545Z,13.55
2023-02-07T08:27:12.095Z,15.10
2023-02-07T08:29:38.656Z,13.60
2023-02-07T08:32:05.650Z,7.63
2023-02-07T08:34:37.377Z,11.95
2023-02-07T08:37:06.204Z,19.58
2023-02-07T08:39:33.788Z,8.63
2023-02-07T08:42:00.583Z,11.25
2023-02-07T08:44:27.793Z,10.23
2023-02-07T08:46:54.436Z,9.98
2023-02-07T08:49:21.232Z,9.73
2023-02-07T08:51:47.784Z,11.25
2023-02-07T08:54:14.482Z,9.52
2023-02-07T08:56:40.985Z,12.07
2023-02-07T08:59:07.612Z,14.23
2023-02-07T09:01:34.259Z,10.25
2023-02-07T09:04:00.818Z,7.25
2023-02-07T09:06:27.413Z,12.85
2023-02-07T09:08:54.417Z,8.25
2023-02-07T09:11:22.607Z,10.25
2023-02-07T09:13:49.612Z,10.10
2023-02-07T09:16:16.264Z,10.30
2023-02-07T09:18:42.949Z,9.40
2023-02-07T09:21:09.626Z,5.53
2023-02-07T09:23:36.698Z,11.88
2023-02-07T09:26:05.971Z,15.82
2023-02-07T09:28:33.084Z,10.07
2023-02-07T09:31:00.290Z,11.27
2023-02-07T09:33:27.051Z,7.30
2023-02-07T09:35:54.756Z,6.93
2023-02-07T09:38:23.662Z,5.97
2023-02-07T09:40:52.494Z,7.45
2023-02-07T09:43:39.384Z,10.85
2023-02-07T09:46:14.073Z,8.98
2023-02-07T09:48:50.939Z,8.50
2023-02-07T09:51:20.811Z,4.88
2023-02-07T09:54:00.865Z,9.68
2023-02-07T09:56:29.599Z,5.25
2023-02-07T09:59:10.800Z,7.00
2023-02-07T10:01:42.985Z,4.90
2023-02-07T10:04:19.116Z,7.90
2023-02-07T10:06:52.845Z,6.20
2023-02-07T10:09:24.136Z,5.23
2023-02-07T10:11:59.810Z,8.90
2023-02-07T10:14:32.110Z,7.38
2023-02-07T10:16:58.664Z,9.73
2023-02-07T10:19:40.996Z,10.10
2023-02-07T10:22:30.744Z,19.85
2023-02-07T10:25:35.571Z,12.13
2023-02-07T10:28:17.407Z,14.57
2023-02-07T10:30:50.615Z,13.35
2023-02-07T10:33:20.492Z,8.65
2023-02-07T10:35:48.489Z,2.60
2023-02-07T10:38:41.762Z,2.15
2023-02-07T10:41:13.799Z,1.48
2023-02-07T10:43:45.070Z,4.55
2023-02-07T10:46:18.043Z,3.33
2023-02-07T10:48:44.941Z,1.02
2023-02-07T10:51:30.079Z,2.35
2023-02-07T10:54:12.649Z,1.40
2023-02-07T10:56:51.502Z,1.40
2023-02-07T10:59:50.792Z,1.27
2023-02-07T11:02:31.634Z,2.13
2023-02-07T11:05:01.079Z,2.10
2023-02-07T11:07:36.773Z,1.45
2023-02-07T11:10:21.586Z,1.33
2023-02-07T11:12:56.612Z,3.30
2023-02-07T11:15:28.188Z,0.70
2023-02-07T11:17:56.961Z,0.93
2023-02-07T11:20:41.791Z,4.18
2023-02-07T11:23:15.078Z,0.85
2023-02-07T11:25:44.408Z,0.95
2023-02-07T11:28:21.304Z,1.65
2023-02-07T11:30:55.899Z,4.40
2023-02-07T11:33:28.511Z,0.52
2023-02-07T11:36:23.312Z,3.33
2023-02-07T11:38:54.876Z,1.02
2023-02-07T11:41:28.354Z,1.33
2023-02-07T11:44:04.288Z,1.55
2023-02-07T11:46:39.864Z,1.45
2023-02-07T11:49:24.247Z,4.18
2023-02-07T11:51:56.758Z,0.63
2023-02-07T11:54:23.807Z,4.32
2023-02-07T11:56:55.794Z,2.58
2023-02-07T11:59:26.854Z,2.80
2023-02-07T12:01:57.207Z,3.28
2023-02-07T12:04:33.588Z,0.85
2023-02-07T12:07:08.200Z,2.92
2023-02-07T12:09:45.774Z,2.72
2023-02-07T12:12:41.580Z,2.95
2023-02-07T12:15:25.612Z,4.20
2023-02-07T12:18:05.806Z,2.92
2023-02-07T12:20:39.102Z,1.33
2023-02-07T12:23:39.156Z,9.43
2023-02-07T12:26:06.928Z,3.88
2023-02-07T12:28:37.642Z,2.63
2023-02-07T12:31:18.376Z,3.50
2023-02-07T12:33:55.640Z,4.57
2023-02-07T12:36:46.563Z,8.25
2023-02-07T12:39:39.601Z,6.07
2023-02-07T12:42:12.064Z,3.53
2023-02-07T12:44:42.620Z,3.45
2023-02-07T12:47:38.678Z,7.35
2023-02-07T12:50:23.648Z,13.88
2023-02-07T12:52:50.128Z,6.70
2023-02-07T12:55:38.121Z,7.13
2023-02-07T12:58:42.039Z,8.55
2023-02-07T13:01:34.510Z,3.70
2023-02-07T13:04:36.540Z,6.63
2023-02-07T13:07:21.826Z,6.20
2023-02-07T13:10:06.828Z,5.00
2023-02-07T13:15:27.836Z,3.40
2023-02-07T13:18:22.651Z,1.35
2023-02-07T13:20:58.122Z,7.00
2023-02-07T13:23:28.339Z,1.27
2023-02-07T13:26:02.590Z,3.60
2023-02-07T13:28:44.425Z,2.08
2023-02-07T13:31:22.962Z,2.33
2023-02-07T13:33:50.725Z,1.30
2023-02-07T13:36:52.731Z,1.63
2023-02-07T13:39:39.062Z,3.60
2023-02-07T13:42:36.535Z,0.93
2023-02-07T13:45:30.718Z,8.40
2023-02-07T13:48:16.708Z,1.13
2023-02-07T13:50:43.215Z,0.82
2023-02-07T13:53:40.380Z,5.25
2023-02-07T13:56:32.528Z,2.35
2023-02-07T13:59:18.577Z,1.77
2023-02-07T14:01:57.823Z,2.65
2023-02-07T14:04:24.639Z,0.95
2023-02-07T14:06:54.018Z,2.90
2023-02-07T14:09:39.121Z,1.83
2023-02-07T14:14:38.405Z,1.63
2023-02-07T14:17:13.925Z,2.78
2023-02-07T14:19:40.477Z,1.23
2023-02-07T14:22:18.685Z,2.90
2023-02-07T14:25:18.512Z,8.32
2023-02-07T14:27:50.775Z,1.27
2023-02-07T14:30:31.054Z,10.82
2023-02-07T14:33:06.477Z,2.63
2023-02-07T14:35:36.377Z,0.80
2023-02-07T14:38:05.690Z,0.98
2023-02-07T14:40:44.496Z,4.03
2023-02-07T14:43:14.021Z,1.60
2023-02-07T14:46:03.300Z,1.02
2023-02-07T14:48:51.253Z,0.93
2023-02-07T14:51:22.407Z,1.30
2023-02-07T14:54:02.845Z,1.67
2023-02-07T14:56:48.183Z,1.98
2023-02-07T14:59:23.470Z,2.75
2023-02-07T15:01:49.982Z,5.93
2023-02-07T15:04:16.956Z,1.50
2023-02-07T15:06:46.159Z,1.15
2023-02-07T15:09:39.320Z,3.53
2023-02-07T15:12:22.369Z,3.63
2023-02-07T15:14:57.041Z,3.78
2023-02-07T15:17:30.982Z,5.35
2023-02-07T15:20:06.346Z,3.13
2023-02-07T15:22:32.878Z,3.45
2023-02-07T15:25:00.992Z,7.22
2023-02-07T15:27:29.520Z,1.55
2023-02-07T15:30:05.429Z,10.35
2023-02-07T15:32:41.972Z,1.33
2023-02-07T15:35:29.746Z,2.70
2023-02-07T15:38:13.757Z,1.20
2023-02-07T15:40:40.947Z,1.05
2023-02-07T15:43:35.107Z,4.03
2023-02-07T15:46:07.730Z,1.67
2023-02-07T15:48:47.248Z,7.78
2023-02-07T15:51:16.745Z,1.17
2023-02-07T15:53:43.523Z,1.20
2023-02-07T15:56:14.931Z,2.90
2023-02-07T15:58:41.801Z,4.22
2023-02-07T16:01:23.373Z,6.80
2023-02-07T16:03:51.889Z,8.10
2023-02-07T16:06:23.287Z,4.40
2023-02-07T16:08:54.581Z,11.13
2023-02-07T16:11:27.134Z,6.72
2023-02-07T16:13:59.595Z,4.40
2023-02-07T16:16:28.637Z,3.72
2023-02-07T16:19:15.081Z,9.88
2023-02-07T16:21:43.572Z,5.55
2023-02-07T16:24:17.128Z,10.05
2023-02-07T16:26:44.771Z,5.78
2023-02-07T16:29:18.432Z,10.90
2023-02-07T16:31:46.106Z,8.00
2023-02-07T16:34:18.339Z,12.45
2023-02-07T16:36:49.568Z,7.10
2023-02-07T16:39:16.095Z,18.45
2023-02-07T16:41:51.558Z,14.07
2023-02-07T16:44:24.285Z,9.68
2023-02-07T16:46:51.411Z,9.55
2023-02-07T16:49:22.736Z,7.63
2023-02-07T16:51:49.289Z,13.98
2023-02-07T16:54:16.579Z,16.83
2023-02-07T16:56:45.479Z,10.65
2023-02-07T16:59:18.427Z,22.95
2023-02-07T17:01:46.412Z,23.35
2023-02-07T17:04:13.693Z,18.95
2023-02-07T17:06:41.996Z,21.95
2023-02-07T17:09:17.580Z,21.90
2023-02-07T17:11:44.503Z,21.05
2023-02-07T17:14:11.333Z,15.23
2023-02-07T17:16:38.407Z,17.70
2023-02-07T17:19:31.225Z,19.63
2023-02-07T17:21:57.787Z,13.70
2023-02-07T17:24:24.460Z,15.77
2023-02-07T17:26:53.627Z,18.27
2023-02-07T17:29:21.097Z,18.83
2023-02-07T17:31:48.912Z,13.35
2023-02-07T17:34:15.593Z,19.42
2023-02-07T17:36:48.680Z,17.13
2023-02-07T17:39:17.823Z,14.75
2023-02-07T17:41:44.890Z,20.83
2023-02-07T17:44:11.411Z,15.23
2023-02-07T17:46:38.304Z,25.20
2023-02-07T17:49:06.376Z,14.65
2023-02-07T17:51:32.920Z,17.85
2023-02-07T17:53:59.489Z,12.90
2023-02-07T17:56:27.351Z,14.95
2023-02-07T17:58:55.740Z,15.25
2023-02-07T18:01:22.595Z,20.08
2023-02-07T18:03:51.068Z,18.95
2023-02-07T18:06:20.046Z,15.38
2023-02-07T18:08:47.230Z,19.35
2023-02-07T18:11:14.359Z,19.00
2023-02-07T18:13:46.380Z,15.18
2023-02-07T18:16:22.289Z,17.75
2023-02-07T18:18:53.359Z,21.90
2023-02-07T18:21:20.139Z,17.27
2023-02-07T18:23:46.837Z,12.05
2023-02-07T18:26:15.349Z,16.40
2023-02-07T18:28:43.402Z,15.32
2023-02-07T18:31:12.247Z,18.90
2023-02-07T18:33:39.104Z,22.92
2023-02-07T18:36:06.484Z,21.52
2023-02-07T18:38:33.025Z,23.08
2023-02-07T18:40:59.540Z,17.38
2023-02-07T18:43:26.069Z,12.60
2023-02-07T18:45:52.587Z,17.25
2023-02-07T18:48:19.144Z,17.65
2023-02-07T18:50:45.871Z,20.90
2023-02-07T18:53:13.237Z,15.98
2023-02-07T18:55:39.807Z,15.32
2023-02-07T18:58:06.362Z,17.27
2023-02-07T19:00:32.852Z,16.13
2023-02-07T19:02:59.395Z,14.95
2023-02-07T19:05:25.910Z,17.40
2023-02-07T19:07:54.198Z,20.85
2023-02-07T19:10:20.673Z,15.98
2023-02-07T19:12:47.118Z,14.77
2023-02-07T19:15:13.701Z,11.73
2023-02-07T19:17:40.212Z,23.63
2023-02-07T19:20:07.199Z,22.67
2023-02-07T19:22:36.016Z,13.98
2023-02-07T19:25:04.843Z,17.55
2023-02-07T19:27:31.437Z,12.90
2023-02-07T19:29:57.969Z,12.60
2023-02-07T19:32:25.160Z,18.10
2023-02-07T19:34:51.776Z,19.73
2023-02-07T19:37:18.597Z,13.18
2023-02-07T19:39:46.234Z,15.63
2023-02-07T19:42:12.919Z,24.75
2023-02-07T19:44:39.432Z,13.43
2023-02-07T19:47:05.945Z,17.90
2023-02-07T19:49:32.479Z,22.23
2023-02-07T19:52:00.212Z,13.73
2023-02-07T19:54:26.880Z,15.93
2023-02-07T19:56:53.376Z,15.27
2023-02-07T19:59:20.012Z,12.05
2023-02-07T20:01:46.648Z,18.60
2023-02-07T20:04:13.354Z,20.40
2023-02-07T20:06:40.046Z,20.33
2023-02-07T20:09:07.661Z,18.08
2023-02-07T20:11:34.890Z,17.30
2023-02-07T20:14:05.954Z,19.27
2023-02-07T20:16:35.575Z,20.48
2023-02-07T20:19:05.546Z,19.48
2023-02-07T20:21:33.712Z,17.75
2023-02-07T20:24:00.579Z,21.30
2023-02-07T20:26:33.168Z,20.55
2023-02-07T20:29:01.651Z,17.77
2023-02-07T20:31:32.000Z,23.92
2023-02-07T20:33:59.995Z,27.38
2023-02-07T20:36:27.036Z,19.45
2023-02-07T20:38:56.554Z,20.30
2023-02-07T20:41:30.800Z,17.25
2023-02-07T20:44:05.124Z,18.17
2023-02-07T20:46:36.185Z,16.58
2023-02-07T20:49:08.441Z,16.05
2023-02-07T20:51:35.422Z,16.63
2023-02-07T20:54:04.202Z,15.98
2023-02-07T20:56:32.799Z,18.65
2023-02-07T20:59:00.476Z,13.90
2023-02-07T21:01:29.954Z,15.38
2023-02-07T21:03:59.216Z,20.67
2023-02-07T21:06:26.310Z,16.63
2023-02-07T21:09:00.490Z,16.70
2023-02-07T21:11:39.823Z,21.05
2023-02-07T21:14:11.132Z,12.55
2023-02-07T21:16:37.839Z,22.70
2023-02-07T21:19:04.558Z,15.68
2023-02-07T21:21:31.621Z,17.23
2023-02-07T21:23:58.633Z,13.93
2023-02-07T21:26:28.809Z,18.17
2023-02-07T21:29:04.920Z,16.73
2023-02-07T21:31:34.919Z,15.23
2023-02-07T21:34:03.534Z,26.45
2023-02-07T21:36:33.310Z,20.40
2023-02-07T21:39:06.965Z,20.55
2023-02-07T21:41:33.660Z,19.35
2023-02-07T21:44:02.401Z,21.42
2023-02-07T21:46:34.525Z,14.52
2023-02-07T21:49:06.798Z,15.75
2023-02-07T21:51:35.247Z,27.38
2023-02-07T21:54:04.306Z,22.35
2023-02-07T21:56:34.603Z,20.17
2023-02-07T21:59:04.047Z,16.13
2023-02-07T22:01:33.165Z,14.63
2023-02-07T22:04:02.036Z,10.10
2023-02-07T22:06:29.425Z,14.70
2023-02-07T22:08:58.793Z,15.50
2023-02-07T22:11:28.647Z,20.92
2023-02-07T22:13:55.715Z,21.38
2023-02-07T22:16:24.867Z,11.10
2023-02-07T22:18:53.485Z,12.40
2023-02-07T22:21:22.732Z,9.43
2023-02-07T22:23:52.040Z,13.00
2023-02-07T22:26:18.774Z,13.07
2023-02-07T22:28:46.429Z,20.48
2023-02-07T22:31:19.478Z,20.67
2023-02-07T22:33:46.732Z,16.40
2023-02-07T22:36:20.053Z,21.15
2023-02-07T22:38:47.656Z,14.15
2023-02-07T22:41:15.167Z,19.70
2023-02-07T22:43:41.857Z,12.52
2023-02-07T22:46:12.161Z,22.13
2023-02-07T22:48:38.824Z,14.60
2023-02-07T22:51:23.858Z,12.75
2023-02-07T22:53:54.570Z,17.45
2023-02-07T22:56:21.644Z,13.70
2023-02-07T22:58:48.197Z,31.13
2023-02-07T23:01:36.176Z,12.35
2023-02-07T23:04:04.928Z,15.52
2023-02-07T23:06:34.820Z,14.48
2023-02-07T23:09:01.845Z,20.52
2023-02-07T23:11:28.437Z,18.95
2023-02-07T23:13:55.248Z,17.25
2023-02-07T23:16:27.885Z,18.92
2023-02-07T23:18:56.428Z,18.30
2023-02-07T23:21:24.338Z,20.55
2023-02-07T23:23:51.455Z,10.93
2023-02-07T23:26:20.827Z,14.98
2023-02-07T23:28:47.657Z,11.60
2023-02-07T23:31:16.357Z,9.65
2023-02-07T23:33:43.408Z,13.68
2023-02-07T23:36:10.441Z,16.95
2023-02-07T23:38:37.814Z,14.20
2023-02-07T23:41:04.892Z,16.63
2023-02-07T23:43:31.435Z,11.00
2023-02-07T23:45:58.254Z,11.25
2023-02-07T23:48:25.056Z,14.68
2023-02-07T23:50:56.934Z,10.80
2023-02-07T23:53:24.579Z,15.18
2023-02-07T23:55:54.029Z,13.02
2023-02-07T23:58:21.384Z,15.27
